Rain radar more information rain snow radar


Visit our other weather sites:

Template documentation
and downloads

And another site



Nearby METAR Reports

   
KTIW - Tacoma, Washington, USA
Distance from station: W 7 mi
Updated: Jul 16 2019 5:53 am
Overcast  
Overcast  
   Wind: Calm
Wind: Calm
Temperature: 60.8°F
Dew Point: 57.2°F
Humidity: 88%
Barometer: 30.03 inHg
Clouds: Overcast
Visibility: 10 mi
Cloud details: Overcast 2134 m
KTIW 161253Z AUTO 00000KT 10SM OVC070 16/14 A3003 RMK AO2 SLP169 T01560144
KTCM - Tacoma/Mc Chord, Washington, USA
Distance from station: S 9 mi
Updated: Jul 16 2019 5:58 am
Mostly Cloudy  
Mostly Cloudy  
   Wind: SW 3.5 mph
Wind: SW 3.5 mph
Temperature: 60.8°F
Dew Point: 60.8°F
Humidity: 100%
Barometer: 30.03 inHg
Clouds: Mostly Cloudy
Visibility: 10 mi
Cloud details: Partly Cloudy 853 m,
Mostly Cloudy 1189 m,
Mostly Cloudy 2134 m
KTCM 161258Z AUTO 22003KT 10SM SCT028 BKN039 BKN070 16/16 A3003 RMK AO2 SLP172 T01630163 $
KSEA - Seattle/Metro, Washington, USA
Distance from station: NNE 15 mi
Updated: Jul 16 2019 6:10 am
Overcast  
Overcast  
   Wind: Calm
Wind: Calm
Temperature: 62.6°F
Dew Point: 57.2°F
Humidity: 83%
Barometer: 30.03 inHg
Clouds: Overcast
Visibility: 10 mi
Cloud details: Mostly Cloudy 366 m,
Mostly Cloudy 579 m,
Overcast 1524 m
KSEA 161310Z 00000KT 10SM BKN012 BKN019 OVC050 17/14 A3003 RMK AO2 T01670139
KBFI - Seattle/Boeing, Washington, USA
Distance from station: NNE 21 mi
Updated: Jul 16 2019 5:53 am
Mostly Cloudy  
Mostly Cloudy  
   Wind: Calm
Wind: Calm
Temperature: 64.4°F
Dew Point: 57.2°F
Humidity: 78%
Barometer: 30.02 inHg
Clouds: Mostly Cloudy
Visibility: 10 mi
Cloud details: Partly Cloudy 427 m,
Mostly Cloudy 975 m
KBFI 161253Z 00000KT 10SM SCT014 BKN032 18/14 A3002 RMK AO2 SLP166 T01780139
KOLM - Olympia, Washington, USA
Distance from station: SW 29 mi
Updated: Jul 16 2019 5:54 am
Overcast  
Overcast  
   Wind: West 3.5 mph
Wind: West 3.5 mph
Temperature: 60.8°F
Dew Point: 57.2°F
Humidity: 88%
Barometer: 30.03 inHg
Clouds: Overcast
Visibility: 10 mi
Cloud details: Overcast 152 m
KOLM 161254Z AUTO 27003KT 10SM OVC005 16/14 A3003 RMK AO2 SLP167 T01560144
 

Script developed by  Saratoga-weather.org Adapted for the template by  Weerstation Leuven

You find our weather info also at:

Weather Underground

WeatherlinkIP

Citizen Weather Observer Program (CWOP)

Equipment we use:

Weather-station
Davis VP2

Weather-program
Meteobridge

Provider
MDD Hosting

Davis VP2

Meteobridge

MDD Hosting